Lop Buri, Thailand

11:54 PM ICT on July 25, 2016 (GMT +0700)
Bangkok International | | Change Station

Elev 13 ft 13.92 °N, 100.61 °E | Updated 24 minutes ago

Partly Cloudy
Partly Cloudy
82 °F
Feels Like 90 °F
N
10
Wind Variable Wind from WNW

Today
High -- | Low -- °F
--% Chance of Precip.
Yesterday
High -- | Low -- °F
Precip. -- in
Pressure 29.83 in
Visibility 6.2 miles
Clouds Few 2000 ft
Heat Index 90 °F
Dew Point 75 °F
Humidity 79%
Rainfall 0.00 in
Snow Depth Not available.
5:58 AM 6:49 PM
Waning Gibbous, 64% visible
METAR VTBD 251630Z 29009KT 250V320 9999 FEW020CB 28/24 Q1010 NOSIG
Pressure 29.83 in
Visibility 6.2 miles
Clouds Few 2000 ft
Heat Index 90 °F
Dew Point 75 °F
Humidity 79%
Rainfall 0.00 in
Snow Depth Not available.
5:58 AM 6:49 PM
Waning Gibbous, 64% visible
METAR VTBD 251630Z 29009KT 250V320 9999 FEW020CB 28/24 Q1010 NOSIG

10-Day Weather Forecast

No radar image for this location.
×

Almanac

Astronomy

Jul. 25, 2016 Rise Set
Actual Time
Civil Twilight
Nautical Twilight
Astronomical Twilight
Moon
Length of Visible Light
Length of Day
Tomorrow will be .
, % of the Moon is Illuminated

Today's Extremes

Country Highs Country Lows

Community

WunderPhotos

Upload Photos

1,927,349 photos uploaded!

WunderBlog® & News

Nearby

Air Quality

  Air Quality AQ Index Pollutant
Not available.

Snow Depth

Station Depth Elevation

Earthquake Activity

City Distance Mag. Time & Date
Minimum magnitude displayed is 2.5.

Coastal Water Temperatures

Place Temperature

Stations

Nearby Weather Stations

Station Location Temp. Windchill Dew Point Humidity Wind Precip. Elev Updated Type